Time;durP1;ratioP1;P1;durP2;ratioP2;P2;SDS_P1;SDS_P2;PMS_P1;PMS_P2;Temp;Humidity;BMP_temperature;BMP_pressure;BME280_temperature;BME280_humidity;BME280_pressure;Samples;Min_cycle;Max_cycle;Signal;HPM_P1;HPM_P2
2023/05/11 00:01:15;;;;;;;2.17;0.70;;;10.80;99.90;;;;;;5071509;28;20035;-79
2023/05/11 00:03:41;;;;;;;0.35;0.35;;;10.80;99.90;;;;;;5074857;28;20035;-79
2023/05/11 00:06:07;;;;;;;0.55;0.55;;;10.80;99.90;;;;;;5075298;28;20036;-79
2023/05/11 00:08:32;;;;;;;0.45;0.43;;;10.80;99.90;;;;;;5075520;28;20500;-79
2023/05/11 00:11:01;;;;;;;0.85;0.43;;;10.90;99.90;;;;;;5093338;28;20483;-79
2023/05/11 00:13:27;;;;;;;0.50;0.50;;;10.80;99.90;;;;;;5093953;28;20035;-79
2023/05/11 00:15:53;;;;;;;0.90;0.77;;;10.80;99.90;;;;;;5075587;28;20035;-79
2023/05/11 00:18:19;;;;;;;0.82;0.40;;;10.80;99.90;;;;;;5076979;28;20389;-80
2023/05/11 00:20:45;;;;;;;1.20;0.80;;;10.70;99.90;;;;;;5076593;28;20080;-79
2023/05/11 00:23:10;;;;;;;0.95;0.55;;;10.70;99.90;;;;;;5075717;28;20028;-80
2023/05/11 00:25:37;;;;;;;0.90;0.40;;;10.70;99.90;;;;;;5093563;28;20032;-80
2023/05/11 00:28:03;;;;;;;2.25;0.60;;;10.70;99.90;;;;;;5094507;28;20098;-79
2023/05/11 00:30:29;;;;;;;1.35;1.13;;;10.60;99.90;;;;;;5074476;28;20108;-79
2023/05/11 00:32:55;;;;;;;0.95;0.82;;;10.60;99.90;;;;;;5092728;28;20197;-79
2023/05/11 00:35:21;;;;;;;2.33;0.45;;;10.60;99.90;;;;;;5074078;28;20110;-79
2023/05/11 00:37:46;;;;;;;1.67;0.80;;;10.60;99.90;;;;;;5074853;28;20060;-79
2023/05/11 00:40:12;;;;;;;3.00;0.80;;;10.60;99.90;;;;;;5073890;28;20051;-79
2023/05/11 00:42:37;;;;;;;0.40;0.40;;;10.70;99.90;;;;;;5074710;28;20480;-79
2023/05/11 00:45:04;;;;;;;0.70;0.60;;;10.70;99.90;;;;;;5075320;28;20496;-79
2023/05/11 00:47:29;;;;;;;2.63;0.50;;;10.70;99.90;;;;;;5074655;28;20016;-79
2023/05/11 00:49:55;;;;;;;2.30;0.43;;;10.70;99.90;;;;;;5092653;28;20544;-79
2023/05/11 00:52:21;;;;;;;0.77;0.77;;;10.80;99.90;;;;;;5074905;28;20430;-79
2023/05/11 00:54:47;;;;;;;1.63;0.88;;;10.80;99.90;;;;;;5091891;28;20093;-79
2023/05/11 00:57:13;;;;;;;1.80;0.63;;;10.90;99.90;;;;;;5074234;28;20063;-80
2023/05/11 00:59:40;;;;;;;2.25;0.68;;;10.90;99.90;;;;;;5074506;28;20066;-79
2023/05/11 01:02:06;;;;;;;3.72;0.80;;;10.90;99.90;;;;;;5073898;28;20317;-79
2023/05/11 01:04:32;;;;;;;0.93;0.93;;;10.90;99.90;;;;;;5074045;28;20031;-79
2023/05/11 01:07:19;;;;;;;0.77;0.68;;;10.90;99.90;;;;;;5092370;28;20020;-78
2023/05/11 01:10:19;;;;;;;2.03;0.65;;;10.90;99.90;;;;;;5092217;28;20069;-79
2023/05/11 01:13:13;;;;;;;7.55;1.80;;;10.90;99.90;;;;;;5073750;28;20127;-79
2023/05/11 01:16:01;;;;;;;3.70;0.80;;;10.90;99.90;;;;;;5074649;28;20016;-79
2023/05/11 01:18:39;;;;;;;1.88;0.55;;;10.90;99.90;;;;;;5073676;28;20503;-79
2023/05/11 01:21:05;;;;;;;1.55;0.60;;;10.90;99.90;;;;;;5073749;28;20040;-79
2023/05/11 01:23:50;;;;;;;2.08;0.93;;;10.90;99.90;;;;;;5073621;28;20051;-79
2023/05/11 01:26:34;;;;;;;4.53;0.70;;;10.90;99.90;;;;;;5074193;28;20036;-78
2023/05/11 01:29:22;;;;;;;1.90;0.50;;;10.90;99.90;;;;;;5092486;28;20521;-79
2023/05/11 01:31:48;;;;;;;0.60;0.57;;;10.80;99.90;;;;;;5092021;28;20028;-80
2023/05/11 01:34:20;;;;;;;3.42;0.70;;;10.80;99.90;;;;;;5092111;28;20101;-79
2023/05/11 01:36:57;;;;;;;0.98;0.82;;;10.80;99.90;;;;;;5077512;28;20111;-78
2023/05/11 01:39:36;;;;;;;3.88;0.85;;;10.80;99.90;;;;;;5053204;28;20029;-78
2023/05/11 01:42:07;;;;;;;2.97;0.70;;;10.80;99.90;;;;;;5071473;28;20047;-79
2023/05/11 01:44:36;;;;;;;0.65;0.65;;;10.80;99.90;;;;;;5053425;28;20320;-78
2023/05/11 01:47:03;;;;;;;2.65;0.85;;;10.80;99.90;;;;;;5054253;28;20028;-81
2023/05/11 01:49:32;;;;;;;4.15;0.80;;;10.80;99.90;;;;;;5054223;28;20124;-79
2023/05/11 01:52:01;;;;;;;1.38;0.60;;;10.80;99.90;;;;;;5054478;28;20024;-79
2023/05/11 01:54:29;;;;;;;1.73;1.02;;;10.70;99.90;;;;;;5053658;28;20247;-79
2023/05/11 01:56:56;;;;;;;3.97;1.08;;;10.80;99.90;;;;;;5071407;28;20033;-79
2023/05/11 01:59:27;;;;;;;4.15;1.20;;;10.80;99.90;;;;;;5071230;28;20110;-79
2023/05/11 02:01:53;;;;;;;0.90;0.90;;;10.70;99.90;;;;;;5071585;28;20036;-79
2023/05/11 02:04:21;;;;;;;1.73;0.80;;;11.00;99.90;;;;;;5071434;28;20036;-79
2023/05/11 02:06:48;;;;;;;2.92;1.05;;;10.70;99.90;;;;;;5071397;28;20095;-80
2023/05/11 02:09:16;;;;;;;0.50;0.50;;;10.60;99.90;;;;;;5071176;28;20047;-79
2023/05/11 02:11:44;;;;;;;2.00;0.73;;;10.60;99.90;;;;;;5071321;28;20012;-79
2023/05/11 02:14:11;;;;;;;2.20;0.90;;;10.60;99.90;;;;;;5089658;28;20681;-79
2023/05/11 02:16:37;;;;;;;1.27;1.02;;;10.50;99.90;;;;;;5071742;28;20480;-79
2023/05/11 02:19:05;;;;;;;2.75;0.90;;;10.50;99.90;;;;;;5090603;28;20114;-80
2023/05/11 02:21:32;;;;;;;3.63;0.73;;;10.40;99.90;;;;;;5071683;28;20114;-79
2023/05/11 02:24:00;;;;;;;1.55;1.20;;;10.40;99.90;;;;;;5070844;28;20511;-79
2023/05/11 02:26:25;;;;;;;0.80;0.60;;;10.40;99.90;;;;;;5070164;28;20519;-79
2023/05/11 02:28:51;;;;;;;0.80;0.80;;;10.30;99.90;;;;;;5089620;28;20334;-78
2023/05/11 02:31:22;;;;;;;1.90;0.90;;;10.30;99.90;;;;;;5089956;28;20428;-80
2023/05/11 02:33:50;;;;;;;1.73;0.80;;;10.30;99.90;;;;;;5071618;28;20032;-80
2023/05/11 02:36:21;;;;;;;2.60;1.08;;;10.20;99.90;;;;;;5075681;28;20040;-80
2023/05/11 02:38:49;;;;;;;2.25;0.90;;;10.00;99.90;;;;;;5074923;28;20143;-81
2023/05/11 02:41:21;;;;;;;1.17;0.70;;;10.00;99.90;;;;;;5073681;28;20048;-80
2023/05/11 02:43:50;;;;;;;1.50;1.25;;;9.90;99.90;;;;;;5073836;28;20024;-80
2023/05/11 02:46:20;;;;;;;1.67;1.30;;;9.90;99.90;;;;;;5092738;28;20477;-80
2023/05/11 02:48:54;;;;;;;2.25;0.85;;;9.90;99.90;;;;;;5074269;28;20020;-80
2023/05/11 02:51:27;;;;;;;4.07;0.88;;;9.80;99.90;;;;;;5091901;28;20027;-80
2023/05/11 02:53:56;;;;;;;2.80;1.20;;;9.80;99.90;;;;;;5073213;28;20020;-80
2023/05/11 02:56:23;;;;;;;1.33;1.13;;;9.80;99.90;;;;;;5073223;28;20549;-79
2023/05/11 02:58:49;;;;;;;1.05;1.05;;;9.80;99.90;;;;;;5072652;28;20028;-80
2023/05/11 03:01:16;;;;;;;5.32;1.60;;;9.80;99.90;;;;;;5072708;28;20118;-79
2023/05/11 03:03:41;;;;;;;6.75;0.80;;;9.80;99.90;;;;;;5090879;28;20024;-80
2023/05/11 03:06:07;;;;;;;1.65;1.05;;;9.70;99.90;;;;;;5072249;28;20024;-79
2023/05/11 03:08:33;;;;;;;1.02;1.00;;;9.80;99.90;;;;;;5072156;28;20469;-79
2023/05/11 03:11:01;;;;;;;3.33;0.90;;;9.80;99.90;;;;;;5071574;28;20032;-79
2023/05/11 03:13:28;;;;;;;2.50;1.38;;;9.70;99.90;;;;;;5071361;28;20024;-80
2023/05/11 03:15:54;;;;;;;0.65;0.60;;;9.70;99.90;;;;;;5071176;28;20518;-80
2023/05/11 03:18:22;;;;;;;0.95;0.52;;;9.80;99.90;;;;;;5072216;28;20031;-79
2023/05/11 03:20:49;;;;;;;1.15;0.75;;;9.80;99.90;;;;;;5072467;28;20515;-79
2023/05/11 03:23:18;;;;;;;3.13;0.63;;;9.80;99.90;;;;;;5090354;28;20075;-80
2023/05/11 03:25:45;;;;;;;2.55;1.38;;;9.80;99.90;;;;;;5072075;28;20031;-80
2023/05/11 03:28:14;;;;;;;0.70;0.70;;;9.80;99.90;;;;;;5073032;28;20028;-80
2023/05/11 03:30:43;;;;;;;2.38;0.80;;;9.70;99.90;;;;;;5073053;28;20023;-80
2023/05/11 03:33:09;;;;;;;1.13;0.57;;;9.70;99.90;;;;;;5073146;28;20028;-79
2023/05/11 03:35:36;;;;;;;1.63;0.68;;;9.70;99.90;;;;;;5068614;28;20042;-80
2023/05/11 03:38:04;;;;;;;1.95;0.70;;;9.70;99.90;;;;;;5053255;28;20393;-80
2023/05/11 03:40:32;;;;;;;1.20;0.80;;;9.70;99.90;;;;;;5056706;28;20091;-80
2023/05/11 03:43:01;;;;;;;2.78;1.48;;;9.70;99.90;;;;;;5068544;28;20439;-79
2023/05/11 03:45:28;;;;;;;4.80;1.27;;;9.70;99.90;;;;;;5068168;28;20112;-79
2023/05/11 03:47:56;;;;;;;3.70;1.23;;;9.70;99.90;;;;;;5068311;28;20094;-79
2023/05/11 03:50:22;;;;;;;2.30;0.90;;;9.70;99.90;;;;;;5068404;28;20115;-80
2023/05/11 03:52:48;;;;;;;2.75;0.60;;;9.70;99.90;;;;;;5068232;28;20139;-79
2023/05/11 03:55:14;;;;;;;1.15;1.05;;;9.70;99.90;;;;;;5068783;28;20039;-79
2023/05/11 03:57:40;;;;;;;3.97;1.00;;;9.70;99.90;;;;;;5067956;28;20435;-79
2023/05/11 04:00:09;;;;;;;3.97;0.73;;;9.70;99.90;;;;;;5068224;28;20025;-79
2023/05/11 04:02:35;;;;;;;2.10;0.88;;;9.70;99.90;;;;;;5067954;28;20032;-79
2023/05/11 04:05:10;;;;;;;0.95;0.95;;;9.70;99.90;;;;;;5069349;28;20025;-79
2023/05/11 04:07:37;;;;;;;2.20;0.68;;;9.70;99.90;;;;;;5067901;28;20384;-79
2023/05/11 04:10:04;;;;;;;3.60;0.98;;;9.70;99.90;;;;;;5067681;28;20385;-79
2023/05/11 04:12:30;;;;;;;5.03;1.40;;;9.70;99.90;;;;;;5068820;28;20287;-79
2023/05/11 04:14:55;;;;;;;1.40;0.90;;;9.80;99.90;;;;;;5067807;28;20172;-79
2023/05/11 04:17:21;;;;;;;0.95;0.60;;;9.80;99.90;;;;;;5067852;28;20480;-79
2023/05/11 04:19:46;;;;;;;1.35;0.88;;;9.80;99.90;;;;;;5067730;28;20110;-79
2023/05/11 04:22:12;;;;;;;1.75;0.85;;;9.80;99.90;;;;;;5067821;28;20502;-80
2023/05/11 04:24:38;;;;;;;0.57;0.57;;;9.90;99.90;;;;;;5067936;28;20027;-79
2023/05/11 04:27:04;;;;;;;1.40;1.08;;;9.80;99.90;;;;;;5068059;28;20504;-79
2023/05/11 04:29:30;;;;;;;0.75;0.75;;;9.90;99.90;;;;;;5067885;28;20115;-79
2023/05/11 04:31:56;;;;;;;1.67;0.82;;;9.90;99.90;;;;;;5068193;28;20028;-80
2023/05/11 04:34:21;;;;;;;2.00;1.27;;;9.90;99.90;;;;;;5068820;28;20070;-80
2023/05/11 04:36:48;;;;;;;2.03;1.63;;;10.00;99.90;;;;;;5069176;28;20082;-79
2023/05/11 04:39:15;;;;;;;3.92;1.15;;;10.00;99.90;;;;;;5069770;28;20029;-80
2023/05/11 04:41:44;;;;;;;4.82;0.93;;;10.00;99.90;;;;;;5068648;28;20048;-79
2023/05/11 04:44:10;;;;;;;1.05;0.77;;;10.00;99.90;;;;;;5067830;28;20067;-79
2023/05/11 04:46:37;;;;;;;0.70;0.70;;;10.10;99.90;;;;;;5067694;28;20636;-80
2023/05/11 04:49:04;;;;;;;1.95;0.73;;;10.20;99.90;;;;;;5071445;28;20020;-79
2023/05/11 04:51:30;;;;;;;1.33;0.88;;;10.20;99.90;;;;;;5072594;28;20035;-78
2023/05/11 04:53:56;;;;;;;3.80;0.70;;;10.20;99.90;;;;;;5070768;28;20029;-80
2023/05/11 04:56:22;;;;;;;1.95;1.20;;;10.20;99.90;;;;;;5070736;28;20452;-80
2023/05/11 04:58:47;;;;;;;0.65;0.65;;;10.20;99.90;;;;;;5070987;28;20021;-79
2023/05/11 05:01:13;;;;;;;2.55;0.60;;;10.20;99.90;;;;;;5070661;28;20104;-79
2023/05/11 05:03:38;;;;;;;3.88;1.52;;;10.30;99.90;;;;;;5070419;28;20037;-79
2023/05/11 05:06:04;;;;;;;1.20;1.00;;;10.30;99.90;;;;;;5069634;28;20024;-79
2023/05/11 05:08:30;;;;;;;3.80;1.40;;;10.30;99.90;;;;;;5068554;28;20020;-79
2023/05/11 05:10:56;;;;;;;2.58;0.90;;;10.30;99.90;;;;;;5068145;28;20032;-80
2023/05/11 05:13:21;;;;;;;2.38;0.95;;;10.30;99.90;;;;;;5068646;28;20012;-79
2023/05/11 05:15:47;;;;;;;4.22;1.30;;;10.30;99.90;;;;;;5071125;28;20037;-79
2023/05/11 05:18:13;;;;;;;0.60;0.60;;;10.30;99.90;;;;;;5069178;28;20013;-78
2023/05/11 05:20:38;;;;;;;1.95;0.98;;;10.40;99.90;;;;;;5068270;28;20084;-78
2023/05/11 05:23:04;;;;;;;0.80;0.80;;;10.40;99.90;;;;;;5067870;28;20032;-79
2023/05/11 05:25:30;;;;;;;6.38;1.13;;;10.50;99.90;;;;;;5070522;28;20248;-79
2023/05/11 05:27:56;;;;;;;3.25;1.75;;;10.50;99.90;;;;;;5069929;28;20115;-78
2023/05/11 05:30:21;;;;;;;2.45;0.98;;;10.50;99.90;;;;;;5073650;28;20032;-79
2023/05/11 05:32:47;;;;;;;2.47;0.80;;;10.50;99.90;;;;;;5072361;28;20024;-78
2023/05/11 05:35:13;;;;;;;4.55;0.90;;;10.50;99.90;;;;;;5071879;28;20225;-79
2023/05/11 05:37:38;;;;;;;0.95;0.77;;;10.50;99.90;;;;;;5071711;28;20028;-79
2023/05/11 05:40:05;;;;;;;1.10;1.00;;;10.60;99.90;;;;;;5070578;28;20385;-78
2023/05/11 05:42:30;;;;;;;1.90;1.00;;;10.60;99.90;;;;;;5074581;28;20025;-78
2023/05/11 05:44:56;;;;;;;1.50;0.90;;;10.70;99.90;;;;;;5054115;28;20020;-78
2023/05/11 05:47:22;;;;;;;1.55;1.00;;;10.80;99.90;;;;;;5054878;28;20098;-79
2023/05/11 05:49:48;;;;;;;3.42;1.17;;;10.90;99.90;;;;;;5055771;28;20099;-79
2023/05/11 05:52:13;;;;;;;1.77;1.17;;;10.90;99.90;;;;;;5055062;28;20558;-79
2023/05/11 05:54:39;;;;;;;4.20;1.30;;;10.90;99.90;;;;;;5070919;28;20021;-80
2023/05/11 05:57:05;;;;;;;1.42;0.98;;;11.00;99.90;;;;;;5052677;28;20024;-79
2023/05/11 05:59:31;;;;;;;2.22;1.25;;;11.00;99.90;;;;;;5053197;28;20029;-78
2023/05/11 06:01:56;;;;;;;0.85;0.60;;;11.10;99.90;;;;;;5052493;28;20511;-78
2023/05/11 06:04:22;;;;;;;1.98;1.08;;;11.10;99.90;;;;;;5071034;28;20021;-82
2023/05/11 06:06:48;;;;;;;1.52;1.27;;;11.10;99.90;;;;;;5058374;28;20218;-80
2023/05/11 06:09:13;;;;;;;2.65;0.85;;;11.20;99.90;;;;;;5054330;28;20017;-79
2023/05/11 06:11:39;;;;;;;2.25;1.10;;;11.40;99.90;;;;;;5071930;28;20515;-80
2023/05/11 06:14:05;;;;;;;0.80;0.80;;;11.40;99.90;;;;;;5072602;28;20021;-79
2023/05/11 06:16:31;;;;;;;1.60;1.10;;;11.50;99.90;;;;;;5052703;28;20376;-81
2023/05/11 06:18:56;;;;;;;6.20;0.90;;;11.60;99.90;;;;;;5051486;28;20024;-79
2023/05/11 06:21:24;;;;;;;1.38;1.20;;;11.60;99.90;;;;;;5058239;28;20469;-80
2023/05/11 06:23:49;;;;;;;0.90;0.85;;;11.60;99.90;;;;;;5056366;28;20052;-79
2023/05/11 06:26:15;;;;;;;2.38;1.15;;;11.80;99.90;;;;;;5059417;28;20252;-79
2023/05/11 06:28:41;;;;;;;3.20;1.00;;;12.00;99.90;;;;;;5075091;28;20587;-78
2023/05/11 06:31:06;;;;;;;4.00;1.30;;;12.00;99.90;;;;;;5062375;28;20035;-79
2023/05/11 06:33:32;;;;;;;1.95;1.13;;;12.30;99.90;;;;;;5073158;28;20020;-80
2023/05/11 06:35:57;;;;;;;0.93;0.90;;;12.50;99.90;;;;;;5067703;28;20043;-79
2023/05/11 06:38:23;;;;;;;2.30;0.80;;;12.70;99.90;;;;;;5083914;28;20026;-79
2023/05/11 06:40:52;;;;;;;1.73;1.05;;;12.70;99.90;;;;;;5100208;28;20352;-79
2023/05/11 06:43:18;;;;;;;1.42;0.80;;;12.60;99.90;;;;;;5101010;28;20246;-78
2023/05/11 06:45:46;;;;;;;1.50;1.38;;;12.60;99.90;;;;;;5100937;28;20070;-79
2023/05/11 06:48:12;;;;;;;4.78;1.02;;;12.80;99.90;;;;;;5101249;28;20331;-79
2023/05/11 06:50:37;;;;;;;1.90;0.98;;;12.90;99.90;;;;;;5091220;28;20020;-79
2023/05/11 06:53:03;;;;;;;3.53;1.50;;;13.20;99.90;;;;;;5072050;28;20083;-78
2023/05/11 06:55:29;;;;;;;0.80;0.80;;;13.00;99.90;;;;;;5088915;28;20035;-79
2023/05/11 06:57:54;;;;;;;2.95;1.30;;;13.40;99.90;;;;;;5071278;28;20032;-78
2023/05/11 07:00:20;;;;;;;3.15;1.30;;;13.40;99.90;;;;;;5071291;28;20081;-79
2023/05/11 07:02:46;;;;;;;1.15;1.05;;;13.40;99.90;;;;;;5071013;28;20403;-79
2023/05/11 07:05:11;;;;;;;2.90;1.08;;;13.70;99.90;;;;;;5090928;28;20027;-79
2023/05/11 07:07:37;;;;;;;1.63;0.93;;;14.10;99.90;;;;;;5098478;28;20330;-79
2023/05/11 07:10:04;;;;;;;1.15;0.80;;;14.40;99.90;;;;;;5098468;28;20020;-78
2023/05/11 07:12:30;;;;;;;0.70;0.70;;;14.50;99.90;;;;;;5099421;28;20042;-79
2023/05/11 07:14:56;;;;;;;3.90;1.33;;;14.90;99.90;;;;;;5081736;28;20331;-78
2023/05/11 07:17:22;;;;;;;0.90;0.65;;;15.10;99.90;;;;;;5099961;28;20020;-79
2023/05/11 07:19:50;;;;;;;1.45;0.70;;;15.60;99.90;;;;;;5096443;28;20024;-79
2023/05/11 07:22:15;;;;;;;1.02;0.88;;;15.70;99.90;;;;;;5095240;28;20540;-78
2023/05/11 07:24:41;;;;;;;2.67;0.90;;;15.60;99.90;;;;;;5070793;28;20104;-78
2023/05/11 07:27:07;;;;;;;0.70;0.70;;;15.90;99.90;;;;;;5071621;28;20329;-79
2023/05/11 07:29:32;;;;;;;1.58;1.10;;;16.10;99.90;;;;;;5071252;28;20024;-79
2023/05/11 07:31:58;;;;;;;0.82;0.70;;;16.30;99.90;;;;;;5071904;28;20024;-78
2023/05/11 07:34:24;;;;;;;0.50;0.50;;;16.30;99.90;;;;;;5071892;28;20058;-80
2023/05/11 07:36:49;;;;;;;3.38;0.68;;;17.20;99.90;;;;;;5088314;28;20027;-80
2023/05/11 07:39:15;;;;;;;1.27;0.60;;;16.80;99.90;;;;;;5072341;28;20020;-79
2023/05/11 07:41:41;;;;;;;1.17;0.65;;;16.80;99.90;;;;;;5074677;28;20355;-79
2023/05/11 07:44:07;;;;;;;6.13;0.60;;;16.40;99.90;;;;;;5072913;28;20020;-78
2023/05/11 07:46:32;;;;;;;2.78;0.75;;;15.90;99.90;;;;;;5070899;28;20024;-79
2023/05/11 07:48:58;;;;;;;0.60;0.60;;;15.50;99.90;;;;;;5089301;28;20086;-79
2023/05/11 07:51:24;;;;;;;2.75;1.08;;;14.90;99.90;;;;;;5071407;28;20543;-78
2023/05/11 07:53:50;;;;;;;0.82;0.82;;;15.10;99.90;;;;;;5070812;28;20107;-78
2023/05/11 07:56:16;;;;;;;0.85;0.82;;;15.00;99.90;;;;;;5072335;28;20433;-80
2023/05/11 07:58:41;;;;;;;1.25;0.77;;;15.00;99.90;;;;;;5070814;28;20387;-79
2023/05/11 08:01:07;;;;;;;1.92;0.98;;;14.80;99.90;;;;;;5089292;28;20115;-79
2023/05/11 08:03:33;;;;;;;0.88;0.75;;;15.10;99.90;;;;;;5071478;28;20030;-79
2023/05/11 08:06:02;;;;;;;1.73;0.98;;;15.10;99.90;;;;;;5071334;28;20020;-79
2023/05/11 08:08:28;;;;;;;0.70;0.70;;;15.30;99.90;;;;;;5072471;28;20392;-78
2023/05/11 08:10:54;;;;;;;0.73;0.50;;;15.10;99.90;;;;;;5079765;28;20032;-79
2023/05/11 08:13:20;;;;;;;2.38;1.05;;;15.40;99.90;;;;;;5080949;28;20100;-79
2023/05/11 08:15:46;;;;;;;1.13;1.08;;;15.50;99.90;;;;;;5099456;28;20193;-79
2023/05/11 08:18:11;;;;;;;4.68;0.98;;;15.70;99.90;;;;;;5085930;28;20012;-81
2023/05/11 08:20:38;;;;;;;0.70;0.70;;;16.10;99.90;;;;;;5088746;28;20046;-80
2023/05/11 08:23:04;;;;;;;3.45;0.80;;;16.60;99.90;;;;;;5100563;28;20093;-79
2023/05/11 08:25:29;;;;;;;0.93;0.60;;;16.20;99.90;;;;;;5103514;28;20020;-78
2023/05/11 08:27:55;;;;;;;1.80;0.93;;;16.20;99.90;;;;;;5085091;28;20354;-78
2023/05/11 08:30:21;;;;;;;2.60;1.25;;;15.90;99.90;;;;;;5085379;28;20101;-78
2023/05/11 08:32:46;;;;;;;1.98;1.25;;;15.80;99.90;;;;;;5084885;28;20016;-79
2023/05/11 08:35:12;;;;;;;0.85;0.85;;;15.50;99.90;;;;;;5084040;28;20307;-79
2023/05/11 08:37:38;;;;;;;2.28;0.82;;;15.40;99.90;;;;;;5083172;28;20084;-79
2023/05/11 08:40:04;;;;;;;1.80;0.80;;;15.40;99.90;;;;;;5083432;28;20170;-79
2023/05/11 08:42:34;;;;;;;0.70;0.70;;;15.70;99.90;;;;;;5097718;28;20050;-78
2023/05/11 08:45:01;;;;;;;1.52;0.93;;;15.70;99.90;;;;;;5081558;28;20035;-79
2023/05/11 08:47:27;;;;;;;1.70;0.95;;;15.90;99.10;;;;;;5102822;28;20495;-79
2023/05/11 08:49:53;;;;;;;1.50;0.65;;;16.40;99.90;;;;;;5084106;28;20042;-78
2023/05/11 08:52:19;;;;;;;2.35;1.45;;;16.70;96.60;;;;;;5079443;28;20623;-79
2023/05/11 08:54:46;;;;;;;2.35;1.00;;;16.90;97.20;;;;;;5074992;28;20013;-79
2023/05/11 08:57:13;;;;;;;0.45;0.43;;;16.70;96.00;;;;;;5074962;28;20024;-79
2023/05/11 08:59:40;;;;;;;0.55;0.55;;;16.20;96.20;;;;;;5075228;28;20380;-78
2023/05/11 09:02:13;;;;;;;2.33;0.73;;;15.90;96.90;;;;;;5075324;28;20040;-79
2023/05/11 09:04:39;;;;;;;1.23;0.52;;;16.00;99.30;;;;;;5074061;28;20026;-79
2023/05/11 09:07:04;;;;;;;1.27;0.75;;;15.80;98.90;;;;;;5092159;28;20016;-78
2023/05/11 09:09:30;;;;;;;1.80;0.88;;;15.80;99.90;;;;;;5092151;28;20484;-79
2023/05/11 09:11:56;;;;;;;1.98;0.95;;;15.70;97.40;;;;;;5092148;28;20266;-79
2023/05/11 09:14:22;;;;;;;3.60;0.80;;;15.70;97.40;;;;;;5091754;28;20038;-78
2023/05/11 09:16:48;;;;;;;1.88;0.55;;;15.60;98.20;;;;;;5074234;28;20039;-78
2023/05/11 09:19:15;;;;;;;1.90;0.63;;;15.80;99.70;;;;;;5070564;28;20020;-78
2023/05/11 09:21:41;;;;;;;1.90;1.30;;;16.10;99.90;;;;;;5063669;28;20123;-79
2023/05/11 09:24:10;;;;;;;2.92;1.45;;;16.10;96.60;;;;;;5053205;28;20465;-78
2023/05/11 09:26:36;;;;;;;2.00;1.23;;;16.00;96.70;;;;;;5055474;28;20082;-78
2023/05/11 09:29:02;;;;;;;1.98;0.90;;;16.20;95.80;;;;;;5055361;28;20032;-78
2023/05/11 09:31:38;;;;;;;1.02;0.70;;;16.10;96.70;;;;;;5055689;28;20020;-79
2023/05/11 09:34:17;;;;;;;3.83;0.70;;;16.00;96.60;;;;;;5057839;28;20249;-78
2023/05/11 09:36:50;;;;;;;0.80;0.75;;;16.40;96.10;;;;;;5069181;28;20585;-78
2023/05/11 09:39:18;;;;;;;1.90;1.23;;;16.60;96.70;;;;;;5073649;28;20028;-79
2023/05/11 09:41:44;;;;;;;1.42;0.85;;;16.50;93.90;;;;;;5072622;28;20419;-78
2023/05/11 09:44:14;;;;;;;1.20;0.57;;;16.40;93.00;;;;;;5090505;28;20065;-79
2023/05/11 09:46:44;;;;;;;4.18;0.98;;;16.40;93.40;;;;;;5073230;28;20062;-78
2023/05/11 09:49:11;;;;;;;2.55;1.00;;;16.50;95.10;;;;;;5073405;28;20563;-79
2023/05/11 09:51:39;;;;;;;2.85;0.70;;;16.40;95.10;;;;;;5091357;28;20048;-79
2023/05/11 09:54:16;;;;;;;1.85;0.80;;;16.20;96.90;;;;;;5071842;28;20127;-78
2023/05/11 09:56:46;;;;;;;1.10;0.95;;;16.10;95.50;;;;;;5072991;28;20031;-78
2023/05/11 09:59:36;;;;;;;1.25;0.70;;;15.90;94.60;;;;;;5072647;28;20085;-79
2023/05/11 10:02:25;;;;;;;1.75;0.88;;;15.80;96.20;;;;;;5076575;28;20035;-78
2023/05/11 10:04:53;;;;;;;2.58;0.90;;;15.80;95.30;;;;;;5075664;28;20032;-79
2023/05/11 10:07:23;;;;;;;2.60;1.33;;;15.90;97.00;;;;;;5076351;28;20107;-79
2023/05/11 10:09:49;;;;;;;0.65;0.65;;;15.90;95.70;;;;;;5075043;28;20031;-80
2023/05/11 10:12:15;;;;;;;3.30;0.93;;;15.80;95.00;;;;;;5074630;28;20092;-79
2023/05/11 10:14:42;;;;;;;1.02;0.85;;;16.00;95.80;;;;;;5073670;28;20145;-78
2023/05/11 10:17:09;;;;;;;2.38;0.68;;;15.70;94.70;;;;;;5073067;28;20039;-79
2023/05/11 10:19:35;;;;;;;3.05;1.20;;;15.80;95.10;;;;;;5073303;28;20020;-79
2023/05/11 10:22:02;;;;;;;4.28;1.10;;;16.10;95.80;;;;;;5091340;28;20064;-78
2023/05/11 10:24:28;;;;;;;0.60;0.60;;;16.20;96.80;;;;;;5088295;28;20368;-78
2023/05/11 10:26:56;;;;;;;1.02;0.75;;;16.10;98.60;;;;;;5090439;28;20038;-79
2023/05/11 10:29:23;;;;;;;1.23;0.70;;;16.60;99.90;;;;;;5072338;28;20503;-77
2023/05/11 10:31:50;;;;;;;1.17;1.05;;;16.60;96.80;;;;;;5071992;28;20020;-79
2023/05/11 10:34:16;;;;;;;2.20;0.95;;;16.80;97.40;;;;;;5090178;28;20153;-79
2023/05/11 10:36:45;;;;;;;2.17;1.10;;;16.90;94.90;;;;;;5072672;28;20058;-79
2023/05/11 10:39:10;;;;;;;1.85;1.33;;;16.60;94.50;;;;;;5090307;28;20027;-77
2023/05/11 10:42:05;;;;;;;4.50;1.20;;;16.60;94.20;;;;;;5090794;28;20059;-78
2023/05/11 10:44:42;;;;;;;0.80;0.80;;;16.40;93.60;;;;;;5072720;28;20047;-78
2023/05/11 10:47:43;;;;;;;0.73;0.65;;;16.20;94.70;;;;;;5071339;28;20122;-78
2023/05/11 10:50:43;;;;;;;2.13;1.10;;;15.80;95.60;;;;;;5071721;28;20029;-79
2023/05/11 10:53:14;;;;;;;1.75;1.00;;;15.30;97.30;;;;;;5071645;28;20031;-79
2023/05/11 10:55:46;;;;;;;2.05;1.15;;;14.80;99.40;;;;;;5089576;28;20103;-79
2023/05/11 10:58:41;;;;;;;1.10;1.00;;;14.60;99.90;;;;;;5071346;28;20020;-77
2023/05/11 11:01:38;;;;;;;3.92;1.55;;;14.30;99.90;;;;;;5089550;28;20089;-79
2023/05/11 11:04:09;;;;;;;5.45;1.10;;;13.80;99.90;;;;;;5089920;28;20019;-79
2023/05/11 11:06:40;;;;;;;1.00;0.90;;;13.60;99.90;;;;;;5089986;28;20039;-78
2023/05/11 11:09:14;;;;;;;2.05;1.15;;;13.50;99.90;;;;;;5071552;28;20047;-78
2023/05/11 11:11:49;;;;;;;1.48;0.80;;;13.20;99.90;;;;;;5071492;28;20012;-79
2023/05/11 11:14:18;;;;;;;1.77;0.80;;;13.10;99.90;;;;;;5071434;28;20515;-78
2023/05/11 11:17:15;;;;;;;2.30;0.80;;;13.10;99.90;;;;;;5089742;28;20185;-78
2023/05/11 11:19:40;;;;;;;1.58;0.60;;;13.30;99.90;;;;;;5063084;28;20020;-78
2023/05/11 11:22:35;;;;;;;2.85;1.02;;;13.70;99.90;;;;;;5068938;28;20033;-78
2023/05/11 11:25:08;;;;;;;0.40;0.35;;;14.00;99.90;;;;;;5069632;28;20078;-79
2023/05/11 11:27:53;;;;;;;0.70;0.63;;;14.30;99.90;;;;;;5052234;28;20085;-79
2023/05/11 11:30:25;;;;;;;4.95;0.63;;;14.80;99.90;;;;;;5070157;28;20021;-78
2023/05/11 11:33:11;;;;;;;0.20;0.20;;;14.70;99.10;;;;;;5052513;28;20032;-79
2023/05/11 11:35:40;;;;;;;0.43;0.40;;;14.90;99.90;;;;;;5052778;28;20573;-78
2023/05/11 11:38:10;;;;;;;0.65;0.45;;;15.40;99.30;;;;;;5052030;28;20566;-79
2023/05/11 11:40:41;;;;;;;1.65;0.50;;;15.50;98.80;;;;;;5053213;28;20131;-79
2023/05/11 11:43:17;;;;;;;1.10;0.80;;;15.40;97.40;;;;;;5066968;28;20090;-79
2023/05/11 11:45:57;;;;;;;1.35;0.50;;;15.70;97.00;;;;;;5067229;28;20024;-78
2023/05/11 11:48:34;;;;;;;;;;;15.60;95.90;;;;;;5067647;28;20036;-79
2023/05/11 11:51:02;;;;;;;1.63;0.82;;;15.90;97.50;;;;;;5067575;28;20007;-79
2023/05/11 11:53:40;;;;;;;0.90;0.85;;;16.20;94.40;;;;;;5067056;28;20017;-79
2023/05/11 11:56:29;;;;;;;0.93;0.60;;;15.90;95.70;;;;;;5067983;28;20021;-79
2023/05/11 11:58:55;;;;;;;0.50;0.50;;;15.70;94.30;;;;;;5059789;28;20045;-78
2023/05/11 12:01:24;;;;;;;2.83;0.50;;;15.70;96.20;;;;;;5071608;28;20043;-79
2023/05/11 12:04:16;;;;;;;0.98;0.70;;;16.00;94.30;;;;;;5073351;28;20094;-78
2023/05/11 12:06:43;;;;;;;1.30;1.08;;;16.30;92.90;;;;;;5043216;28;20032;-78
2023/05/11 12:09:09;;;;;;;0.70;0.70;;;16.50;93.60;;;;;;5069821;28;20025;-78
2023/05/11 12:11:37;;;;;;;2.97;0.80;;;16.50;94.10;;;;;;5070051;28;20035;-78
2023/05/11 12:14:02;;;;;;;1.00;1.00;;;16.20;95.10;;;;;;5071368;28;20021;-79
2023/05/11 12:16:28;;;;;;;0.70;0.70;;;16.00;93.10;;;;;;5070051;28;20021;-79
2023/05/11 12:18:56;;;;;;;2.28;1.00;;;16.10;98.10;;;;;;5091770;28;20020;-78
2023/05/11 12:21:25;;;;;;;2.63;0.73;;;16.10;97.20;;;;;;5065684;28;20056;-79
2023/05/11 12:24:01;;;;;;;1.60;1.08;;;16.30;97.50;;;;;;5083105;28;20012;-78
2023/05/11 12:26:28;;;;;;;2.35;0.73;;;16.20;97.00;;;;;;5083939;28;20205;-79
2023/05/11 12:29:26;;;;;;;1.00;1.00;;;15.30;99.90;;;;;;5082770;28;20057;-78
2023/05/11 12:31:52;;;;;;;2.03;0.98;;;14.90;99.90;;;;;;5058584;28;20040;-79
2023/05/11 12:34:20;;;;;;;3.40;0.90;;;14.40;99.90;;;;;;5103323;28;20024;-78
2023/05/11 12:36:48;;;;;;;1.33;1.23;;;14.20;99.90;;;;;;5085115;28;20358;-79
2023/05/11 12:39:17;;;;;;;0.60;0.52;;;14.00;99.90;;;;;;5102277;28;20036;-79
2023/05/11 12:41:44;;;;;;;1.40;0.77;;;13.90;99.90;;;;;;5102432;28;20043;-79
2023/05/11 12:44:10;;;;;;;0.40;0.40;;;14.10;99.90;;;;;;5084179;28;20024;-79
2023/05/11 12:46:36;;;;;;;0.47;0.47;;;14.00;99.90;;;;;;5083927;28;20020;-79
2023/05/11 12:49:02;;;;;;;0.80;0.80;;;14.20;99.90;;;;;;5103691;28;20107;-80
2023/05/11 12:51:49;;;;;;;0.50;0.50;;;14.20;99.90;;;;;;5084602;28;20035;-79
2023/05/11 12:54:31;;;;;;;1.98;0.80;;;14.30;99.90;;;;;;5083246;28;20024;-78
2023/05/11 12:56:58;;;;;;;0.60;0.60;;;;;;;;;;5102387;28;20031;-78